KOCF/OCF METAR and TAF weather

Enter ICAO airport designator
Station Type Date Time Source
KOCF METAR 2021/09/16 20:51 UTC NOAA

KOCF 162051Z 21007KT 10SM SCT040 31/23 A2994 RMK AO2 SLP138 T03110228 56018 $


Station Type Date Time Source
KOCF Decoded METAR 2021/09/16 20:51 UTC NOAA

Ocala, Ocala International Airport-Jim Taylor Field, FL, United States (KOCF) 29-10N 082-13W
Sep 16, 2021 - 04:51 PM EDT / 2021.09.16 2051 UTC
Wind: from the SSW (210 degrees) at 8 MPH (7 KT):0
Visibility: 10 mile(s):0
Sky conditions: partly cloudy
Temperature: 88.0 F (31.1 C)
Heat index: 95.5 F (35.3 C):1
Dew Point: 73.0 F (22.8 C)
Relative Humidity: 61%
Pressure (altimeter): 29.94 in. Hg (1013 hPa)
Pressure tendency: 0.05 inches (1.8 hPa) lower than three hours ago
ob: KOCF 162051Z 21007KT 10SM SCT040 31/23 A2994 RMK AO2 SLP138 T03110228 56018
cycle: 21

Station Type Date Time Source
KOCF TAF UTC NOAA

Error!

Example: see airport list